sensor_id;sensor_type;location;lat;lon;timestamp;P1;durP1;ratioP1;P2;durP2;ratioP2
48813;SDS011;34634;44.108;3.074;2023-03-14T00:00:07;4.28;;;1.38;;
48813;SDS011;34634;44.108;3.074;2023-03-14T00:02:35;9.07;;;1.52;;
48813;SDS011;34634;44.108;3.074;2023-03-14T00:05:01;6.53;;;1.52;;
48813;SDS011;34634;44.108;3.074;2023-03-14T00:07:37;7.20;;;1.23;;
48813;SDS011;34634;44.108;3.074;2023-03-14T00:10:08;8.38;;;1.95;;
48813;SDS011;34634;44.108;3.074;2023-03-14T00:12:36;9.48;;;1.30;;
48813;SDS011;34634;44.108;3.074;2023-03-14T00:15:02;4.85;;;1.10;;
48813;SDS011;34634;44.108;3.074;2023-03-14T00:17:31;4.68;;;1.40;;
48813;SDS011;34634;44.108;3.074;2023-03-14T00:19:57;10.05;;;1.27;;
48813;SDS011;34634;44.108;3.074;2023-03-14T00:22:29;8.82;;;1.40;;
48813;SDS011;34634;44.108;3.074;2023-03-14T00:24:56;6.90;;;1.60;;
48813;SDS011;34634;44.108;3.074;2023-03-14T00:27:23;11.05;;;1.30;;
48813;SDS011;34634;44.108;3.074;2023-03-14T00:29:49;7.10;;;1.55;;
48813;SDS011;34634;44.108;3.074;2023-03-14T00:32:16;9.48;;;1.65;;
48813;SDS011;34634;44.108;3.074;2023-03-14T00:34:42;7.40;;;1.60;;
48813;SDS011;34634;44.108;3.074;2023-03-14T00:37:09;7.13;;;1.42;;
48813;SDS011;34634;44.108;3.074;2023-03-14T00:39:35;8.10;;;1.52;;
48813;SDS011;34634;44.108;3.074;2023-03-14T00:42:01;12.20;;;1.67;;
48813;SDS011;34634;44.108;3.074;2023-03-14T00:44:28;11.27;;;1.20;;
48813;SDS011;34634;44.108;3.074;2023-03-14T00:46:55;7.90;;;1.48;;
48813;SDS011;34634;44.108;3.074;2023-03-14T00:49:22;7.90;;;1.52;;
48813;SDS011;34634;44.108;3.074;2023-03-14T00:51:48;11.25;;;2.22;;
48813;SDS011;34634;44.108;3.074;2023-03-14T00:54:17;8.63;;;1.95;;
48813;SDS011;34634;44.108;3.074;2023-03-14T00:56:43;12.30;;;1.65;;
48813;SDS011;34634;44.108;3.074;2023-03-14T00:59:09;9.95;;;1.60;;
48813;SDS011;34634;44.108;3.074;2023-03-14T01:01:36;5.35;;;1.30;;
48813;SDS011;34634;44.108;3.074;2023-03-14T01:04:02;13.82;;;2.13;;
48813;SDS011;34634;44.108;3.074;2023-03-14T01:06:29;9.88;;;1.80;;
48813;SDS011;34634;44.108;3.074;2023-03-14T01:08:55;11.00;;;2.58;;
48813;SDS011;34634;44.108;3.074;2023-03-14T01:11:23;13.95;;;2.05;;
48813;SDS011;34634;44.108;3.074;2023-03-14T01:13:50;10.48;;;1.90;;
48813;SDS011;34634;44.108;3.074;2023-03-14T01:16:17;12.80;;;2.63;;
48813;SDS011;34634;44.108;3.074;2023-03-14T01:18:44;17.25;;;2.45;;
48813;SDS011;34634;44.108;3.074;2023-03-14T01:21:14;12.00;;;2.28;;
48813;SDS011;34634;44.108;3.074;2023-03-14T01:26:08;10.23;;;1.75;;
48813;SDS011;34634;44.108;3.074;2023-03-14T01:28:35;13.32;;;2.03;;
48813;SDS011;34634;44.108;3.074;2023-03-14T01:31:02;14.52;;;1.98;;
48813;SDS011;34634;44.108;3.074;2023-03-14T01:33:29;11.00;;;2.20;;
48813;SDS011;34634;44.108;3.074;2023-03-14T01:35:55;13.75;;;2.30;;
48813;SDS011;34634;44.108;3.074;2023-03-14T01:38:22;9.10;;;1.73;;
48813;SDS011;34634;44.108;3.074;2023-03-14T01:40:48;12.20;;;2.13;;
48813;SDS011;34634;44.108;3.074;2023-03-14T01:43:15;17.25;;;2.65;;
48813;SDS011;34634;44.108;3.074;2023-03-14T01:48:24;10.88;;;1.73;;
48813;SDS011;34634;44.108;3.074;2023-03-14T01:50:51;14.30;;;2.25;;
48813;SDS011;34634;44.108;3.074;2023-03-14T01:53:17;15.30;;;2.30;;
48813;SDS011;34634;44.108;3.074;2023-03-14T01:55:49;13.05;;;2.03;;
48813;SDS011;34634;44.108;3.074;2023-03-14T01:58:16;19.50;;;2.75;;
48813;SDS011;34634;44.108;3.074;2023-03-14T02:00:42;10.82;;;2.13;;
48813;SDS011;34634;44.108;3.074;2023-03-14T02:03:14;9.82;;;1.63;;
48813;SDS011;34634;44.108;3.074;2023-03-14T02:05:42;12.43;;;1.80;;
48813;SDS011;34634;44.108;3.074;2023-03-14T02:08:10;11.50;;;1.70;;
48813;SDS011;34634;44.108;3.074;2023-03-14T02:10:38;9.88;;;1.63;;
48813;SDS011;34634;44.108;3.074;2023-03-14T02:13:05;9.23;;;1.80;;
48813;SDS011;34634;44.108;3.074;2023-03-14T02:15:31;9.20;;;1.83;;
48813;SDS011;34634;44.108;3.074;2023-03-14T02:17:58;7.63;;;1.50;;
48813;SDS011;34634;44.108;3.074;2023-03-14T02:22:51;7.70;;;1.42;;
48813;SDS011;34634;44.108;3.074;2023-03-14T02:27:44;7.65;;;1.38;;
48813;SDS011;34634;44.108;3.074;2023-03-14T02:30:19;15.73;;;1.80;;
48813;SDS011;34634;44.108;3.074;2023-03-14T02:32:46;8.43;;;1.35;;
48813;SDS011;34634;44.108;3.074;2023-03-14T02:35:18;12.65;;;2.00;;
48813;SDS011;34634;44.108;3.074;2023-03-14T02:37:54;8.00;;;1.60;;
48813;SDS011;34634;44.108;3.074;2023-03-14T02:40:21;8.45;;;1.63;;
48813;SDS011;34634;44.108;3.074;2023-03-14T02:42:47;9.25;;;1.85;;
48813;SDS011;34634;44.108;3.074;2023-03-14T02:47:43;13.23;;;1.70;;
48813;SDS011;34634;44.108;3.074;2023-03-14T02:50:15;10.90;;;1.70;;
48813;SDS011;34634;44.108;3.074;2023-03-14T02:52:43;8.20;;;1.85;;
48813;SDS011;34634;44.108;3.074;2023-03-14T02:55:09;10.52;;;1.83;;
48813;SDS011;34634;44.108;3.074;2023-03-14T02:57:35;10.52;;;1.92;;
48813;SDS011;34634;44.108;3.074;2023-03-14T03:00:02;11.10;;;2.10;;
48813;SDS011;34634;44.108;3.074;2023-03-14T03:02:31;16.58;;;2.22;;
48813;SDS011;34634;44.108;3.074;2023-03-14T03:04:58;10.75;;;2.55;;
48813;SDS011;34634;44.108;3.074;2023-03-14T03:07:24;12.57;;;2.08;;
48813;SDS011;34634;44.108;3.074;2023-03-14T03:09:50;12.35;;;2.10;;
48813;SDS011;34634;44.108;3.074;2023-03-14T03:12:17;13.60;;;2.25;;
48813;SDS011;34634;44.108;3.074;2023-03-14T03:14:43;17.80;;;2.03;;
48813;SDS011;34634;44.108;3.074;2023-03-14T03:17:09;9.57;;;1.90;;
48813;SDS011;34634;44.108;3.074;2023-03-14T03:19:36;8.95;;;1.50;;
48813;SDS011;34634;44.108;3.074;2023-03-14T03:22:02;9.48;;;1.60;;
48813;SDS011;34634;44.108;3.074;2023-03-14T03:24:28;6.18;;;1.40;;
48813;SDS011;34634;44.108;3.074;2023-03-14T03:26:54;6.18;;;1.05;;
48813;SDS011;34634;44.108;3.074;2023-03-14T03:29:21;8.10;;;1.17;;
48813;SDS011;34634;44.108;3.074;2023-03-14T03:31:47;8.43;;;1.40;;
48813;SDS011;34634;44.108;3.074;2023-03-14T03:34:14;5.60;;;1.10;;
48813;SDS011;34634;44.108;3.074;2023-03-14T03:36:40;4.03;;;0.70;;
48813;SDS011;34634;44.108;3.074;2023-03-14T03:39:07;4.82;;;1.10;;
48813;SDS011;34634;44.108;3.074;2023-03-14T03:41:33;4.55;;;0.90;;
48813;SDS011;34634;44.108;3.074;2023-03-14T03:43:59;5.78;;;1.00;;
48813;SDS011;34634;44.108;3.074;2023-03-14T03:46:26;3.40;;;0.73;;
48813;SDS011;34634;44.108;3.074;2023-03-14T03:48:56;5.75;;;1.10;;
48813;SDS011;34634;44.108;3.074;2023-03-14T03:51:22;3.00;;;0.73;;
48813;SDS011;34634;44.108;3.074;2023-03-14T03:53:49;5.72;;;1.10;;
48813;SDS011;34634;44.108;3.074;2023-03-14T03:56:15;3.33;;;1.02;;
48813;SDS011;34634;44.108;3.074;2023-03-14T03:58:41;6.85;;;1.17;;
48813;SDS011;34634;44.108;3.074;2023-03-14T04:01:08;4.25;;;1.35;;
48813;SDS011;34634;44.108;3.074;2023-03-14T04:03:36;4.22;;;1.00;;
48813;SDS011;34634;44.108;3.074;2023-03-14T04:06:05;6.50;;;1.10;;
48813;SDS011;34634;44.108;3.074;2023-03-14T04:08:31;5.88;;;0.90;;
48813;SDS011;34634;44.108;3.074;2023-03-14T04:10:58;5.70;;;1.30;;
48813;SDS011;34634;44.108;3.074;2023-03-14T04:13:25;2.28;;;0.70;;
48813;SDS011;34634;44.108;3.074;2023-03-14T04:15:52;4.70;;;0.80;;
48813;SDS011;34634;44.108;3.074;2023-03-14T04:18:19;4.70;;;0.80;;
48813;SDS011;34634;44.108;3.074;2023-03-14T04:20:45;4.10;;;0.77;;
48813;SDS011;34634;44.108;3.074;2023-03-14T04:23:16;2.60;;;0.88;;
48813;SDS011;34634;44.108;3.074;2023-03-14T04:25:42;3.88;;;1.02;;
48813;SDS011;34634;44.108;3.074;2023-03-14T04:28:08;8.00;;;0.98;;
48813;SDS011;34634;44.108;3.074;2023-03-14T04:30:35;3.78;;;0.77;;
48813;SDS011;34634;44.108;3.074;2023-03-14T04:33:01;5.18;;;0.93;;
48813;SDS011;34634;44.108;3.074;2023-03-14T04:35:29;5.90;;;0.75;;
48813;SDS011;34634;44.108;3.074;2023-03-14T04:37:56;5.57;;;0.85;;
48813;SDS011;34634;44.108;3.074;2023-03-14T04:40:22;6.10;;;1.10;;
48813;SDS011;34634;44.108;3.074;2023-03-14T04:42:48;4.13;;;1.00;;
48813;SDS011;34634;44.108;3.074;2023-03-14T04:45:15;5.30;;;0.70;;
48813;SDS011;34634;44.108;3.074;2023-03-14T04:47:41;3.38;;;0.82;;
48813;SDS011;34634;44.108;3.074;2023-03-14T04:50:08;3.70;;;0.75;;
48813;SDS011;34634;44.108;3.074;2023-03-14T04:52:34;4.93;;;0.82;;
48813;SDS011;34634;44.108;3.074;2023-03-14T04:55:01;4.47;;;1.00;;
48813;SDS011;34634;44.108;3.074;2023-03-14T04:57:27;3.67;;;0.80;;
48813;SDS011;34634;44.108;3.074;2023-03-14T04:59:53;4.35;;;1.10;;
48813;SDS011;34634;44.108;3.074;2023-03-14T05:02:20;5.20;;;0.90;;
48813;SDS011;34634;44.108;3.074;2023-03-14T05:04:46;1.95;;;0.60;;
48813;SDS011;34634;44.108;3.074;2023-03-14T05:07:12;2.83;;;0.70;;
48813;SDS011;34634;44.108;3.074;2023-03-14T05:09:39;2.40;;;0.55;;
48813;SDS011;34634;44.108;3.074;2023-03-14T05:12:05;1.50;;;0.35;;
48813;SDS011;34634;44.108;3.074;2023-03-14T05:14:31;2.53;;;0.40;;
48813;SDS011;34634;44.108;3.074;2023-03-14T05:16:58;2.38;;;0.47;;
48813;SDS011;34634;44.108;3.074;2023-03-14T05:19:24;3.10;;;0.47;;
48813;SDS011;34634;44.108;3.074;2023-03-14T05:21:50;2.60;;;0.47;;
48813;SDS011;34634;44.108;3.074;2023-03-14T05:24:17;2.90;;;0.60;;
48813;SDS011;34634;44.108;3.074;2023-03-14T05:26:43;4.25;;;0.65;;
48813;SDS011;34634;44.108;3.074;2023-03-14T05:29:09;7.55;;;0.93;;
48813;SDS011;34634;44.108;3.074;2023-03-14T05:31:36;2.78;;;0.40;;
48813;SDS011;34634;44.108;3.074;2023-03-14T05:34:02;4.07;;;0.73;;
48813;SDS011;34634;44.108;3.074;2023-03-14T05:36:28;1.65;;;0.47;;
48813;SDS011;34634;44.108;3.074;2023-03-14T05:38:55;1.63;;;0.40;;
48813;SDS011;34634;44.108;3.074;2023-03-14T05:41:21;2.65;;;0.73;;
48813;SDS011;34634;44.108;3.074;2023-03-14T05:43:47;3.42;;;0.50;;
48813;SDS011;34634;44.108;3.074;2023-03-14T05:46:13;1.38;;;0.30;;
48813;SDS011;34634;44.108;3.074;2023-03-14T05:48:40;1.13;;;0.25;;
48813;SDS011;34634;44.108;3.074;2023-03-14T05:51:06;1.60;;;0.30;;
48813;SDS011;34634;44.108;3.074;2023-03-14T05:53:32;1.60;;;0.35;;
48813;SDS011;34634;44.108;3.074;2023-03-14T05:55:59;0.55;;;0.20;;
48813;SDS011;34634;44.108;3.074;2023-03-14T05:58:25;2.97;;;0.40;;
48813;SDS011;34634;44.108;3.074;2023-03-14T06:00:51;1.52;;;0.40;;
48813;SDS011;34634;44.108;3.074;2023-03-14T06:03:17;1.10;;;0.30;;
48813;SDS011;34634;44.108;3.074;2023-03-14T06:05:44;1.33;;;0.50;;
48813;SDS011;34634;44.108;3.074;2023-03-14T06:08:10;1.95;;;0.40;;
48813;SDS011;34634;44.108;3.074;2023-03-14T06:10:37;1.95;;;0.60;;
48813;SDS011;34634;44.108;3.074;2023-03-14T06:13:03;2.30;;;0.65;;
48813;SDS011;34634;44.108;3.074;2023-03-14T06:15:29;3.47;;;1.00;;
48813;SDS011;34634;44.108;3.074;2023-03-14T06:17:56;4.50;;;0.75;;
48813;SDS011;34634;44.108;3.074;2023-03-14T06:20:22;5.10;;;0.93;;
48813;SDS011;34634;44.108;3.074;2023-03-14T06:22:48;4.75;;;0.90;;
48813;SDS011;34634;44.108;3.074;2023-03-14T06:25:15;3.60;;;0.90;;
48813;SDS011;34634;44.108;3.074;2023-03-14T06:27:41;3.45;;;0.98;;
48813;SDS011;34634;44.108;3.074;2023-03-14T06:30:07;5.03;;;1.67;;
48813;SDS011;34634;44.108;3.074;2023-03-14T06:32:34;4.65;;;0.90;;
48813;SDS011;34634;44.108;3.074;2023-03-14T06:35:00;4.35;;;1.40;;
48813;SDS011;34634;44.108;3.074;2023-03-14T06:37:27;4.88;;;1.20;;
48813;SDS011;34634;44.108;3.074;2023-03-14T06:39:54;5.82;;;1.10;;
48813;SDS011;34634;44.108;3.074;2023-03-14T06:42:20;5.22;;;1.13;;
48813;SDS011;34634;44.108;3.074;2023-03-14T06:44:47;3.08;;;1.10;;
48813;SDS011;34634;44.108;3.074;2023-03-14T06:47:13;3.35;;;0.70;;
48813;SDS011;34634;44.108;3.074;2023-03-14T06:49:39;1.90;;;0.50;;
48813;SDS011;34634;44.108;3.074;2023-03-14T06:52:06;3.08;;;0.75;;
48813;SDS011;34634;44.108;3.074;2023-03-14T06:54:32;2.28;;;0.68;;
48813;SDS011;34634;44.108;3.074;2023-03-14T06:56:58;3.25;;;0.88;;
48813;SDS011;34634;44.108;3.074;2023-03-14T06:59:25;10.15;;;1.30;;
48813;SDS011;34634;44.108;3.074;2023-03-14T07:01:51;10.23;;;1.23;;
48813;SDS011;34634;44.108;3.074;2023-03-14T07:04:17;6.10;;;0.95;;
48813;SDS011;34634;44.108;3.074;2023-03-14T07:06:44;5.22;;;1.00;;
48813;SDS011;34634;44.108;3.074;2023-03-14T07:09:11;11.20;;;1.30;;
48813;SDS011;34634;44.108;3.074;2023-03-14T07:11:38;8.95;;;1.80;;
48813;SDS011;34634;44.108;3.074;2023-03-14T07:14:05;9.18;;;1.30;;
48813;SDS011;34634;44.108;3.074;2023-03-14T07:16:31;4.95;;;1.27;;
48813;SDS011;34634;44.108;3.074;2023-03-14T07:18:58;7.07;;;1.55;;
48813;SDS011;34634;44.108;3.074;2023-03-14T07:21:25;9.55;;;1.25;;
48813;SDS011;34634;44.108;3.074;2023-03-14T07:23:51;9.35;;;1.70;;
48813;SDS011;34634;44.108;3.074;2023-03-14T07:26:17;8.98;;;1.63;;
48813;SDS011;34634;44.108;3.074;2023-03-14T07:28:44;15.25;;;2.63;;
48813;SDS011;34634;44.108;3.074;2023-03-14T07:31:10;8.98;;;1.65;;
48813;SDS011;34634;44.108;3.074;2023-03-14T07:33:37;10.63;;;2.20;;
48813;SDS011;34634;44.108;3.074;2023-03-14T07:36:03;10.13;;;2.38;;
48813;SDS011;34634;44.108;3.074;2023-03-14T07:38:30;9.25;;;1.80;;
48813;SDS011;34634;44.108;3.074;2023-03-14T07:41:00;8.32;;;1.85;;
48813;SDS011;34634;44.108;3.074;2023-03-14T07:43:26;13.70;;;2.50;;
48813;SDS011;34634;44.108;3.074;2023-03-14T07:45:53;11.88;;;1.92;;
48813;SDS011;34634;44.108;3.074;2023-03-14T07:48:19;11.27;;;2.65;;
48813;SDS011;34634;44.108;3.074;2023-03-14T07:50:53;12.93;;;2.60;;
48813;SDS011;34634;44.108;3.074;2023-03-14T07:53:20;14.27;;;2.20;;
48813;SDS011;34634;44.108;3.074;2023-03-14T07:55:46;11.73;;;2.58;;
48813;SDS011;34634;44.108;3.074;2023-03-14T07:58:13;11.70;;;2.20;;
48813;SDS011;34634;44.108;3.074;2023-03-14T08:00:40;13.45;;;2.60;;
48813;SDS011;34634;44.108;3.074;2023-03-14T08:03:06;12.00;;;2.30;;
48813;SDS011;34634;44.108;3.074;2023-03-14T08:05:35;13.95;;;2.22;;
48813;SDS011;34634;44.108;3.074;2023-03-14T08:08:02;14.35;;;2.20;;
48813;SDS011;34634;44.108;3.074;2023-03-14T08:10:28;15.23;;;2.47;;
48813;SDS011;34634;44.108;3.074;2023-03-14T08:12:56;11.65;;;2.13;;
48813;SDS011;34634;44.108;3.074;2023-03-14T08:15:23;10.52;;;1.90;;
48813;SDS011;34634;44.108;3.074;2023-03-14T08:17:49;9.45;;;2.03;;
48813;SDS011;34634;44.108;3.074;2023-03-14T08:20:17;11.10;;;2.20;;
48813;SDS011;34634;44.108;3.074;2023-03-14T08:22:43;6.03;;;1.30;;
48813;SDS011;34634;44.108;3.074;2023-03-14T08:25:09;11.50;;;1.33;;
48813;SDS011;34634;44.108;3.074;2023-03-14T08:27:36;6.35;;;1.10;;
48813;SDS011;34634;44.108;3.074;2023-03-14T08:30:14;6.85;;;1.20;;
48813;SDS011;34634;44.108;3.074;2023-03-14T08:32:41;2.95;;;0.50;;
48813;SDS011;34634;44.108;3.074;2023-03-14T08:35:07;2.70;;;0.93;;
48813;SDS011;34634;44.108;3.074;2023-03-14T08:37:34;2.22;;;0.68;;
48813;SDS011;34634;44.108;3.074;2023-03-14T08:40:01;2.65;;;0.70;;
48813;SDS011;34634;44.108;3.074;2023-03-14T08:42:32;1.83;;;1.00;;
48813;SDS011;34634;44.108;3.074;2023-03-14T08:44:58;3.72;;;1.10;;
48813;SDS011;34634;44.108;3.074;2023-03-14T08:47:25;3.67;;;0.90;;
48813;SDS011;34634;44.108;3.074;2023-03-14T08:49:51;3.95;;;0.95;;
48813;SDS011;34634;44.108;3.074;2023-03-14T08:52:18;6.05;;;1.10;;
48813;SDS011;34634;44.108;3.074;2023-03-14T08:54:44;5.68;;;1.20;;
48813;SDS011;34634;44.108;3.074;2023-03-14T08:57:10;5.63;;;1.40;;
48813;SDS011;34634;44.108;3.074;2023-03-14T08:59:37;2.60;;;1.02;;
48813;SDS011;34634;44.108;3.074;2023-03-14T09:02:03;3.75;;;1.27;;
48813;SDS011;34634;44.108;3.074;2023-03-14T09:04:30;8.18;;;1.50;;
48813;SDS011;34634;44.108;3.074;2023-03-14T09:06:56;8.60;;;1.67;;
48813;SDS011;34634;44.108;3.074;2023-03-14T09:09:26;5.50;;;1.25;;
48813;SDS011;34634;44.108;3.074;2023-03-14T09:11:52;10.60;;;2.15;;
48813;SDS011;34634;44.108;3.074;2023-03-14T09:14:19;7.80;;;1.60;;
48813;SDS011;34634;44.108;3.074;2023-03-14T09:16:45;9.13;;;2.10;;
48813;SDS011;34634;44.108;3.074;2023-03-14T09:19:11;7.65;;;1.77;;
48813;SDS011;34634;44.108;3.074;2023-03-14T09:21:37;5.03;;;1.20;;
48813;SDS011;34634;44.108;3.074;2023-03-14T09:24:04;5.00;;;1.50;;
48813;SDS011;34634;44.108;3.074;2023-03-14T09:26:31;9.23;;;2.00;;
48813;SDS011;34634;44.108;3.074;2023-03-14T09:28:57;8.00;;;1.58;;
48813;SDS011;34634;44.108;3.074;2023-03-14T09:31:23;6.60;;;1.40;;
48813;SDS011;34634;44.108;3.074;2023-03-14T09:33:50;3.40;;;0.57;;
48813;SDS011;34634;44.108;3.074;2023-03-14T09:36:16;3.08;;;0.90;;
48813;SDS011;34634;44.108;3.074;2023-03-14T09:38:42;5.35;;;0.77;;
48813;SDS011;34634;44.108;3.074;2023-03-14T09:41:21;3.90;;;0.77;;
48813;SDS011;34634;44.108;3.074;2023-03-14T09:43:48;3.80;;;0.70;;
48813;SDS011;34634;44.108;3.074;2023-03-14T09:46:16;2.95;;;0.60;;
48813;SDS011;34634;44.108;3.074;2023-03-14T09:48:42;1.90;;;0.50;;
48813;SDS011;34634;44.108;3.074;2023-03-14T09:51:14;1.27;;;0.70;;
48813;SDS011;34634;44.108;3.074;2023-03-14T09:53:43;3.08;;;0.60;;
48813;SDS011;34634;44.108;3.074;2023-03-14T09:56:11;2.72;;;1.00;;
48813;SDS011;34634;44.108;3.074;2023-03-14T09:58:38;1.50;;;0.50;;
48813;SDS011;34634;44.108;3.074;2023-03-14T10:01:07;2.75;;;0.70;;
48813;SDS011;34634;44.108;3.074;2023-03-14T10:03:37;3.28;;;0.65;;
48813;SDS011;34634;44.108;3.074;2023-03-14T10:06:08;3.90;;;0.90;;
48813;SDS011;34634;44.108;3.074;2023-03-14T10:08:38;3.38;;;1.10;;
48813;SDS011;34634;44.108;3.074;2023-03-14T10:11:05;5.95;;;1.33;;
48813;SDS011;34634;44.108;3.074;2023-03-14T10:13:32;5.63;;;1.63;;
48813;SDS011;34634;44.108;3.074;2023-03-14T10:16:00;6.30;;;1.52;;
48813;SDS011;34634;44.108;3.074;2023-03-14T10:18:28;10.50;;;2.05;;
48813;SDS011;34634;44.108;3.074;2023-03-14T10:21:02;9.05;;;2.00;;
48813;SDS011;34634;44.108;3.074;2023-03-14T10:23:30;8.18;;;2.10;;
48813;SDS011;34634;44.108;3.074;2023-03-14T10:25:58;5.45;;;1.70;;
48813;SDS011;34634;44.108;3.074;2023-03-14T10:30:52;7.18;;;2.20;;
48813;SDS011;34634;44.108;3.074;2023-03-14T10:38:24;9.80;;;2.55;;
48813;SDS011;34634;44.108;3.074;2023-03-14T10:40:51;7.47;;;2.42;;
48813;SDS011;34634;44.108;3.074;2023-03-14T10:43:31;8.68;;;2.22;;
48813;SDS011;34634;44.108;3.074;2023-03-14T10:46:16;7.97;;;2.15;;
48813;SDS011;34634;44.108;3.074;2023-03-14T10:48:42;12.07;;;2.63;;
48813;SDS011;34634;44.108;3.074;2023-03-14T10:53:47;11.77;;;2.80;;
48813;SDS011;34634;44.108;3.074;2023-03-14T10:56:14;10.32;;;2.63;;
48813;SDS011;34634;44.108;3.074;2023-03-14T10:58:42;11.40;;;3.13;;
48813;SDS011;34634;44.108;3.074;2023-03-14T11:06:39;13.35;;;2.63;;
48813;SDS011;34634;44.108;3.074;2023-03-14T11:11:45;8.60;;;2.45;;
48813;SDS011;34634;44.108;3.074;2023-03-14T11:14:16;11.45;;;2.92;;
48813;SDS011;34634;44.108;3.074;2023-03-14T11:16:49;12.63;;;3.17;;
48813;SDS011;34634;44.108;3.074;2023-03-14T11:22:03;11.30;;;3.80;;
48813;SDS011;34634;44.108;3.074;2023-03-14T11:27:17;15.20;;;3.58;;
48813;SDS011;34634;44.108;3.074;2023-03-14T11:32:44;11.00;;;3.00;;
48813;SDS011;34634;44.108;3.074;2023-03-14T11:37:57;20.30;;;4.53;;
48813;SDS011;34634;44.108;3.074;2023-03-14T11:40:26;12.88;;;3.95;;
48813;SDS011;34634;44.108;3.074;2023-03-14T11:43:06;11.77;;;3.20;;
48813;SDS011;34634;44.108;3.074;2023-03-14T11:45:36;12.18;;;4.60;;
48813;SDS011;34634;44.108;3.074;2023-03-14T11:50:49;17.90;;;6.57;;
48813;SDS011;34634;44.108;3.074;2023-03-14T11:55:44;14.93;;;4.50;;
48813;SDS011;34634;44.108;3.074;2023-03-14T12:00:43;11.02;;;4.57;;
48813;SDS011;34634;44.108;3.074;2023-03-14T12:03:19;11.20;;;3.65;;
48813;SDS011;34634;44.108;3.074;2023-03-14T12:13:46;11.75;;;2.25;;
48813;SDS011;34634;44.108;3.074;2023-03-14T12:18:49;7.90;;;1.75;;
48813;SDS011;34634;44.108;3.074;2023-03-14T12:21:15;4.35;;;1.27;;
48813;SDS011;34634;44.108;3.074;2023-03-14T12:23:43;3.38;;;1.30;;
48813;SDS011;34634;44.108;3.074;2023-03-14T12:28:37;4.82;;;1.70;;
48813;SDS011;34634;44.108;3.074;2023-03-14T12:31:49;7.43;;;2.90;;
48813;SDS011;34634;44.108;3.074;2023-03-14T12:34:00;6.90;;;3.50;;
48813;SDS011;34634;44.108;3.074;2023-03-14T12:41:52;5.82;;;1.70;;
48813;SDS011;34634;44.108;3.074;2023-03-14T12:46:57;11.45;;;1.45;;
48813;SDS011;34634;44.108;3.074;2023-03-14T12:49:32;3.30;;;1.27;;
48813;SDS011;34634;44.108;3.074;2023-03-14T12:52:10;7.68;;;1.60;;
48813;SDS011;34634;44.108;3.074;2023-03-14T12:54:56;2.72;;;1.27;;
48813;SDS011;34634;44.108;3.074;2023-03-14T12:59:58;4.75;;;1.25;;
48813;SDS011;34634;44.108;3.074;2023-03-14T13:05:14;3.47;;;1.42;;
48813;SDS011;34634;44.108;3.074;2023-03-14T13:10:26;3.20;;;1.30;;
48813;SDS011;34634;44.108;3.074;2023-03-14T13:15:31;4.55;;;1.38;;
48813;SDS011;34634;44.108;3.074;2023-03-14T13:18:11;4.90;;;1.10;;
48813;SDS011;34634;44.108;3.074;2023-03-14T13:20:40;4.77;;;1.60;;
48813;SDS011;34634;44.108;3.074;2023-03-14T13:23:29;4.30;;;1.30;;
48813;SDS011;34634;44.108;3.074;2023-03-14T13:25:54;5.22;;;1.52;;
48813;SDS011;34634;44.108;3.074;2023-03-14T13:28:21;7.47;;;1.40;;
48813;SDS011;34634;44.108;3.074;2023-03-14T13:30:48;3.55;;;1.10;;
48813;SDS011;34634;44.108;3.074;2023-03-14T13:33:16;3.58;;;0.90;;
48813;SDS011;34634;44.108;3.074;2023-03-14T13:35:48;2.53;;;0.90;;
48813;SDS011;34634;44.108;3.074;2023-03-14T13:38:19;8.00;;;1.25;;
48813;SDS011;34634;44.108;3.074;2023-03-14T13:48:29;4.65;;;1.23;;
48813;SDS011;34634;44.108;3.074;2023-03-14T13:51:05;4.35;;;1.25;;
48813;SDS011;34634;44.108;3.074;2023-03-14T13:53:32;5.18;;;1.33;;
48813;SDS011;34634;44.108;3.074;2023-03-14T13:56:08;3.40;;;1.42;;
48813;SDS011;34634;44.108;3.074;2023-03-14T13:58:36;3.42;;;1.05;;
48813;SDS011;34634;44.108;3.074;2023-03-14T14:01:10;4.90;;;1.65;;
48813;SDS011;34634;44.108;3.074;2023-03-14T14:03:39;2.75;;;0.90;;
48813;SDS011;34634;44.108;3.074;2023-03-14T14:06:28;5.90;;;1.52;;
48813;SDS011;34634;44.108;3.074;2023-03-14T14:08:56;3.55;;;1.08;;
48813;SDS011;34634;44.108;3.074;2023-03-14T14:11:42;4.18;;;1.23;;
48813;SDS011;34634;44.108;3.074;2023-03-14T14:14:10;3.95;;;0.93;;
48813;SDS011;34634;44.108;3.074;2023-03-14T14:16:38;7.00;;;1.73;;
48813;SDS011;34634;44.108;3.074;2023-03-14T14:19:05;2.60;;;0.80;;
48813;SDS011;34634;44.108;3.074;2023-03-14T14:21:31;2.35;;;0.70;;
48813;SDS011;34634;44.108;3.074;2023-03-14T14:23:58;1.13;;;0.70;;
48813;SDS011;34634;44.108;3.074;2023-03-14T14:26:25;1.08;;;0.50;;
48813;SDS011;34634;44.108;3.074;2023-03-14T14:29:03;1.70;;;0.95;;
48813;SDS011;34634;44.108;3.074;2023-03-14T14:31:29;2.42;;;1.58;;
48813;SDS011;34634;44.108;3.074;2023-03-14T14:34:00;2.60;;;1.50;;
48813;SDS011;34634;44.108;3.074;2023-03-14T14:39:16;0.50;;;0.50;;
48813;SDS011;34634;44.108;3.074;2023-03-14T14:41:40;2.88;;;1.30;;
48813;SDS011;34634;44.108;3.074;2023-03-14T14:44:10;2.22;;;0.90;;
48813;SDS011;34634;44.108;3.074;2023-03-14T14:49:05;3.08;;;1.30;;
48813;SDS011;34634;44.108;3.074;2023-03-14T14:51:38;6.10;;;1.55;;
48813;SDS011;34634;44.108;3.074;2023-03-14T14:54:10;2.25;;;0.82;;
48813;SDS011;34634;44.108;3.074;2023-03-14T14:56:37;3.97;;;1.48;;
48813;SDS011;34634;44.108;3.074;2023-03-14T14:59:04;6.20;;;1.40;;
48813;SDS011;34634;44.108;3.074;2023-03-14T15:01:33;4.90;;;1.50;;
48813;SDS011;34634;44.108;3.074;2023-03-14T15:04:00;4.22;;;1.30;;
48813;SDS011;34634;44.108;3.074;2023-03-14T15:06:28;4.80;;;1.02;;
48813;SDS011;34634;44.108;3.074;2023-03-14T15:08:54;2.80;;;1.00;;
48813;SDS011;34634;44.108;3.074;2023-03-14T15:11:22;4.55;;;1.58;;
48813;SDS011;34634;44.108;3.074;2023-03-14T15:13:48;5.53;;;1.10;;
48813;SDS011;34634;44.108;3.074;2023-03-14T15:16:15;3.38;;;1.20;;
48813;SDS011;34634;44.108;3.074;2023-03-14T15:18:42;2.78;;;0.70;;
48813;SDS011;34634;44.108;3.074;2023-03-14T15:21:10;3.63;;;1.27;;
48813;SDS011;34634;44.108;3.074;2023-03-14T15:23:36;5.22;;;1.33;;
48813;SDS011;34634;44.108;3.074;2023-03-14T15:26:04;2.88;;;1.08;;
48813;SDS011;34634;44.108;3.074;2023-03-14T15:28:31;4.32;;;1.00;;
48813;SDS011;34634;44.108;3.074;2023-03-14T15:30:58;4.00;;;1.00;;
48813;SDS011;34634;44.108;3.074;2023-03-14T15:33:25;4.07;;;0.95;;
48813;SDS011;34634;44.108;3.074;2023-03-14T15:35:52;7.43;;;1.30;;
48813;SDS011;34634;44.108;3.074;2023-03-14T15:38:19;5.28;;;1.08;;
48813;SDS011;34634;44.108;3.074;2023-03-14T15:40:49;4.38;;;1.15;;
48813;SDS011;34634;44.108;3.074;2023-03-14T15:43:16;4.93;;;1.17;;
48813;SDS011;34634;44.108;3.074;2023-03-14T15:45:43;5.47;;;1.20;;
48813;SDS011;34634;44.108;3.074;2023-03-14T15:48:16;3.20;;;1.20;;
48813;SDS011;34634;44.108;3.074;2023-03-14T15:50:43;3.58;;;1.27;;
48813;SDS011;34634;44.108;3.074;2023-03-14T15:53:09;3.95;;;1.20;;
48813;SDS011;34634;44.108;3.074;2023-03-14T15:55:36;4.43;;;1.25;;
48813;SDS011;34634;44.108;3.074;2023-03-14T15:58:03;4.18;;;1.00;;
48813;SDS011;34634;44.108;3.074;2023-03-14T16:00:29;6.68;;;1.10;;
48813;SDS011;34634;44.108;3.074;2023-03-14T16:02:56;1.77;;;0.70;;
48813;SDS011;34634;44.108;3.074;2023-03-14T16:05:22;3.75;;;0.80;;
48813;SDS011;34634;44.108;3.074;2023-03-14T16:07:48;3.88;;;1.23;;
48813;SDS011;34634;44.108;3.074;2023-03-14T16:10:15;3.10;;;1.13;;
48813;SDS011;34634;44.108;3.074;2023-03-14T16:12:41;2.90;;;1.05;;
48813;SDS011;34634;44.108;3.074;2023-03-14T16:15:08;5.78;;;1.10;;
48813;SDS011;34634;44.108;3.074;2023-03-14T16:17:34;2.90;;;1.10;;
48813;SDS011;34634;44.108;3.074;2023-03-14T16:20:03;6.15;;;1.27;;
48813;SDS011;34634;44.108;3.074;2023-03-14T16:22:29;2.78;;;1.10;;